Time,TemperatureF,DewpointF,PressureIn,WindDirection,WindDirectionDegrees,WindSpeedMPH,WindSpeedGustMPH,Humidity,HourlyPrecipIn,Conditions,Clouds,dailyrainin,SoftwareType,DateUTC
2013-06-26 00:01:00,67.0,65.0,-100.00,NE,40,0.0,3.0,93,4.53,,,-99.99,,2013-06-26 04:01:00,
2013-06-26 00:12:00,67.0,65.0,-100.00,NE,40,0.0,3.0,93,4.53,,,-99.99,,2013-06-26 04:12:00,
2013-06-26 00:53:00,67.0,65.0,-100.00,NW,325,0.0,1.0,93,2.83,,,-99.99,,2013-06-26 04:53:00,
2013-06-26 01:02:00,67.0,65.0,-100.00,NNW,340,1.0,2.0,93,6.22,,,-99.99,,2013-06-26 05:02:00,
2013-06-26 01:22:00,67.0,65.0,-100.00,NNW,335,0.0,1.0,93,4.53,,,-99.99,,2013-06-26 05:22:00,
2013-06-26 01:52:00,67.0,65.0,-100.00,WNW,290,0.0,4.0,93,0.00,,,-99.99,,2013-06-26 05:52:00,
2013-06-26 02:02:00,67.0,65.0,-100.00,North,0,0.0,2.0,93,0.00,,,-99.99,,2013-06-26 06:02:00,
2013-06-26 02:11:00,66.0,65.0,-100.00,North,0,0.0,4.0,93,0.00,,,-99.99,,2013-06-26 06:11:00,
2013-06-26 02:22:00,66.0,64.0,-100.00,North,10,1.0,5.0,93,0.00,,,-99.99,,2013-06-26 06:22:00,
2013-06-26 03:11:00,66.0,64.0,-100.00,WNW,285,0.0,0.0,93,0.00,,,-99.99,,2013-06-26 07:11:00,
2013-06-26 03:22:00,66.0,64.0,-100.00,WNW,285,0.0,0.0,93,0.00,,,-99.99,,2013-06-26 07:22:00,
2013-06-26 04:11:00,66.0,65.0,-100.00,NNW,340,0.0,2.0,93,0.00,,,-99.99,,2013-06-26 08:11:00,
2013-06-26 04:22:00,67.0,65.0,-100.00,North,355,0.0,2.0,93,0.00,,,-99.99,,2013-06-26 08:22:00,
2013-06-26 05:11:00,67.0,65.0,-100.00,ENE,75,0.0,3.0,93,0.00,,,-99.99,,2013-06-26 09:11:00,
2013-06-26 05:22:00,67.0,65.0,-100.00,ENE,75,0.0,3.0,93,0.00,,,-99.99,,2013-06-26 09:22:00,
2013-06-26 05:53:00,67.0,65.0,-100.00,North,5,0.0,3.0,93,0.00,,,-99.99,,2013-06-26 09:53:00,
2013-06-26 06:01:00,67.0,65.0,-100.00,North,5,0.0,1.0,93,0.00,,,-99.99,,2013-06-26 10:01:00,
2013-06-26 06:53:00,67.0,65.0,-100.00,North,0,0.0,1.0,93,0.00,,,-99.99,,2013-06-26 10:53:00,
2013-06-26 07:02:00,67.0,65.0,-100.00,North,350,0.0,2.0,93,0.00,,,-99.99,,2013-06-26 11:02:00,
2013-06-26 07:52:00,68.0,66.0,-100.00,West,265,0.0,0.0,93,0.00,,,-99.99,,2013-06-26 11:52:00,
2013-06-26 08:52:00,69.0,67.0,-100.00,NNW,330,0.0,0.0,93,0.00,,,-99.99,,2013-06-26 12:52:00,
2013-06-26 09:11:00,72.0,69.0,-100.00,ESE,105,0.0,4.0,92,0.00,,,-99.99,,2013-06-26 13:11:00,
2013-06-26 09:22:00,72.0,69.0,-100.00,East,90,0.0,1.0,91,0.00,,,-99.99,,2013-06-26 13:22:00,
2013-06-26 09:34:00,71.0,68.0,-100.00,ESE,105,0.0,2.0,90,0.00,,,-99.99,,2013-06-26 13:34:00,
2013-06-26 09:53:00,73.0,69.0,-100.00,East,85,0.0,3.0,87,0.00,,,-99.99,,2013-06-26 13:53:00,
2013-06-26 10:02:00,72.0,68.0,-100.00,East,90,0.0,3.0,86,0.00,,,-99.99,,2013-06-26 14:02:00,
2013-06-26 10:12:00,72.0,67.0,-100.00,ESE,120,0.0,1.0,86,0.00,,,-99.99,,2013-06-26 14:12:00,
2013-06-26 10:24:00,71.0,67.0,-100.00,SE,140,0.0,2.0,86,0.00,,,-99.99,,2013-06-26 14:24:00,
2013-06-26 10:53:00,74.0,68.0,-100.00,ENE,70,1.0,2.0,80,0.00,,,-99.99,,2013-06-26 14:53:00,
2013-06-26 11:12:00,77.0,68.0,-100.00,ESE,110,1.0,3.0,72,0.00,,,-99.99,,2013-06-26 15:12:00,
2013-06-26 11:22:00,77.0,68.0,-100.00,ENE,75,0.0,4.0,72,0.00,,,-99.99,,2013-06-26 15:22:00,
2013-06-26 11:53:00,78.0,68.0,-100.00,ESE,115,0.0,2.0,69,0.00,,,-99.99,,2013-06-26 15:53:00,
2013-06-26 12:11:00,79.0,67.0,-100.00,SSE,150,1.0,4.0,65,0.00,,,-99.99,,2013-06-26 16:11:00,
2013-06-26 12:22:00,79.0,67.0,-100.00,ESE,110,1.0,4.0,65,0.00,,,-99.99,,2013-06-26 16:22:00,
2013-06-26 12:34:00,81.0,67.0,-100.00,SSE,160,1.0,3.0,63,0.00,,,-99.99,,2013-06-26 16:34:00,
2013-06-26 12:43:00,81.0,67.0,-100.00,SSE,155,0.0,2.0,61,0.00,,,-99.99,,2013-06-26 16:43:00,
2013-06-26 12:52:00,82.0,66.0,-100.00,ESE,115,0.0,3.0,58,0.00,,,-99.99,,2013-06-26 16:52:00,
2013-06-26 13:52:00,82.0,68.0,-100.00,SSE,150,0.0,2.0,62,0.00,,,-99.99,,2013-06-26 17:52:00,
2013-06-26 14:12:00,81.0,67.0,-100.00,ENE,65,0.0,1.0,63,0.00,,,-99.99,,2013-06-26 18:12:00,
2013-06-26 14:34:00,81.0,69.0,-100.00,ENE,70,1.0,3.0,67,0.00,,,-99.99,,2013-06-26 18:34:00,
2013-06-26 14:52:00,83.0,68.0,-100.00,ESE,110,0.0,1.0,61,0.00,,,-99.99,,2013-06-26 18:52:00,
2013-06-26 15:11:00,81.0,65.0,-100.00,North,10,0.0,2.0,57,0.00,,,-99.99,,2013-06-26 19:11:00,
2013-06-26 15:22:00,83.0,67.0,-100.00,NE,50,0.0,1.0,59,0.00,,,-99.99,,2013-06-26 19:22:00,
2013-06-26 15:33:00,82.0,69.0,-100.00,East,85,0.0,3.0,63,0.00,,,-99.99,,2013-06-26 19:33:00,
2013-06-26 15:42:00,82.0,67.0,-100.00,NNE,30,0.0,2.0,60,0.00,,,-99.99,,2013-06-26 19:42:00,
2013-06-26 15:52:00,83.0,67.0,-100.00,North,350,0.0,1.0,59,0.00,,,-99.99,,2013-06-26 19:52:00,
2013-06-26 16:01:00,83.0,68.0,-100.00,SSE,155,0.0,4.0,61,0.00,,,-99.99,,2013-06-26 20:01:00,
2013-06-26 16:12:00,82.0,67.0,-100.00,East,90,1.0,3.0,59,0.00,,,-99.99,,2013-06-26 20:12:00,
2013-06-26 16:22:00,83.0,68.0,-100.00,SE,130,0.0,1.0,60,0.00,,,-99.99,,2013-06-26 20:22:00,
2013-06-26 16:34:00,82.0,68.0,-100.00,NNE,25,0.0,3.0,63,0.00,,,-99.99,,2013-06-26 20:34:00,
2013-06-26 16:52:00,83.0,66.0,-100.00,ESE,105,0.0,2.0,56,0.00,,,-99.99,,2013-06-26 20:52:00,
2013-06-26 17:12:00,82.0,67.0,-100.00,ENE,75,0.0,2.0,61,0.00,,,-99.99,,2013-06-26 21:12:00,
2013-06-26 17:23:00,82.0,67.0,-100.00,SE,130,0.0,1.0,60,0.00,,,-99.99,,2013-06-26 21:23:00,
2013-06-26 17:33:00,82.0,67.0,-100.00,East,95,0.0,3.0,61,0.00,,,-99.99,,2013-06-26 21:33:00,
2013-06-26 17:52:00,82.0,70.0,-100.00,ESE,110,0.0,1.0,67,0.00,,,-99.99,,2013-06-26 21:52:00,
2013-06-26 18:52:00,81.0,68.0,-100.00,NNE,20,0.0,1.0,64,0.00,,,-99.99,,2013-06-26 22:52:00,
2013-06-26 19:02:00,81.0,70.0,-100.00,NNW,340,0.0,1.0,70,0.00,,,-99.99,,2013-06-26 23:02:00,
2013-06-26 19:11:00,80.0,70.0,-100.00,SW,220,0.0,0.0,70,0.00,,,-99.99,,2013-06-26 23:11:00,
2013-06-26 19:22:00,79.0,69.0,-100.00,NE,55,0.0,0.0,71,0.00,,,-99.99,,2013-06-26 23:22:00,
2013-06-26 19:43:00,78.0,69.0,-100.00,NE,35,0.0,0.0,73,0.00,,,-99.99,,2013-06-26 23:43:00,
2013-06-26 20:22:00,77.0,71.0,-100.00,SE,125,0.0,0.0,79,0.00,,,-99.99,,2013-06-27 00:22:00,
2013-06-26 21:22:00,76.0,69.0,-100.00,West,270,0.0,0.0,78,0.00,,,-99.99,,2013-06-27 01:22:00,
2013-06-26 21:53:00,74.0,69.0,-100.00,NNW,330,0.0,0.0,82,0.00,,,-99.99,,2013-06-27 01:53:00,
2013-06-26 22:11:00,73.0,68.0,-100.00,NNW,330,0.0,0.0,84,0.00,,,-99.99,,2013-06-27 02:11:00,
2013-06-26 22:22:00,73.0,68.0,-100.00,WNW,300,0.0,0.0,85,0.00,,,-99.99,,2013-06-27 02:22:00,
2013-06-26 22:52:00,72.0,68.0,-100.00,West,265,0.0,0.0,88,0.00,,,-99.99,,2013-06-27 02:52:00,
2013-06-26 23:21:00,71.0,68.0,-100.00,West,260,0.0,0.0,89,0.00,,,-99.99,,2013-06-27 03:21:00,
2013-06-26 23:33:00,71.0,67.0,-100.00,West,260,0.0,0.0,89,0.00,,,-99.99,,2013-06-27 03:33:00,
2013-06-26 23:52:00,70.0,67.0,-100.00,West,260,0.0,0.0,90,0.00,,,-99.99,,2013-06-27 03:52:00,